Terminal Aerodrome Forecast
Issued by NWS Duluth, MN

Home | Current Version | Previous Version | Text Only | Print | Product List | Glossary On
Versions: 1 2 3 4 5 6 7 8 9 10 11 12 13 14 15 16 17 18 19 20 21 22 23 24 25 26 27 28 29 30 31 32 33 34 35 36 37 38 39 40 41
439
FTUS43 KDLH 082208 AAB
TAFDLH
TAF AMD
KDLH 082208Z 0822/0918 33016G24KT 5SM -SHSN BLSN SCT020 OVC040
      TEMPO 0822/0824 2SM -SN BLSN SCT017 BKN020 OVC050
     FM090100 34015G23KT P6SM SCT025 BKN040
      TEMPO 0901/0905 5SM BLSN BKN025
     FM090800 34012G20KT P6SM SCT030=

USA.gov is the U.S. government's official web portal to all federal, state and local government web resources and services.